sensor_id;sensor_type;location;lat;lon;timestamp;P1;durP1;ratioP1;P2;durP2;ratioP2
2750;SDS011;1383;48.362;10.908;2022-11-15T00:00:54;13.43;;;10.85;;
2750;SDS011;1383;48.362;10.908;2022-11-15T00:03:23;12.43;;;11.13;;
2750;SDS011;1383;48.362;10.908;2022-11-15T00:05:51;12.45;;;11.15;;
2750;SDS011;1383;48.362;10.908;2022-11-15T00:08:18;14.38;;;10.65;;
2750;SDS011;1383;48.362;10.908;2022-11-15T00:10:55;11.10;;;10.00;;
2750;SDS011;1383;48.362;10.908;2022-11-15T00:13:23;16.05;;;10.73;;
2750;SDS011;1383;48.362;10.908;2022-11-15T00:15:50;11.32;;;10.23;;
2750;SDS011;1383;48.362;10.908;2022-11-15T00:18:17;11.85;;;10.65;;
2750;SDS011;1383;48.362;10.908;2022-11-15T00:20:44;15.00;;;10.63;;
2750;SDS011;1383;48.362;10.908;2022-11-15T00:23:11;12.65;;;11.32;;
2750;SDS011;1383;48.362;10.908;2022-11-15T00:25:38;12.85;;;10.00;;
2750;SDS011;1383;48.362;10.908;2022-11-15T00:28:05;13.60;;;10.57;;
2750;SDS011;1383;48.362;10.908;2022-11-15T00:30:32;13.18;;;10.15;;
2750;SDS011;1383;48.362;10.908;2022-11-15T00:33:02;11.90;;;9.95;;
2750;SDS011;1383;48.362;10.908;2022-11-15T00:35:31;13.15;;;10.40;;
2750;SDS011;1383;48.362;10.908;2022-11-15T00:37:59;14.80;;;11.02;;
2750;SDS011;1383;48.362;10.908;2022-11-15T00:40:27;11.00;;;10.00;;
2750;SDS011;1383;48.362;10.908;2022-11-15T00:42:54;13.13;;;11.10;;
2750;SDS011;1383;48.362;10.908;2022-11-15T00:45:21;10.90;;;9.65;;
2750;SDS011;1383;48.362;10.908;2022-11-15T00:47:48;15.10;;;9.98;;
2750;SDS011;1383;48.362;10.908;2022-11-15T00:50:16;16.40;;;10.60;;
2750;SDS011;1383;48.362;10.908;2022-11-15T00:52:43;11.65;;;9.60;;
2750;SDS011;1383;48.362;10.908;2022-11-15T00:55:14;25.17;;;11.63;;
2750;SDS011;1383;48.362;10.908;2022-11-15T00:57:42;9.75;;;8.75;;
2750;SDS011;1383;48.362;10.908;2022-11-15T01:00:09;11.75;;;10.07;;
2750;SDS011;1383;48.362;10.908;2022-11-15T01:02:37;10.15;;;7.93;;
2750;SDS011;1383;48.362;10.908;2022-11-15T01:05:04;10.45;;;9.35;;
2750;SDS011;1383;48.362;10.908;2022-11-15T01:07:31;13.10;;;9.45;;
2750;SDS011;1383;48.362;10.908;2022-11-15T01:09:58;9.82;;;8.30;;
2750;SDS011;1383;48.362;10.908;2022-11-15T01:12:25;9.27;;;8.38;;
2750;SDS011;1383;48.362;10.908;2022-11-15T01:14:52;11.88;;;8.55;;
2750;SDS011;1383;48.362;10.908;2022-11-15T01:17:19;9.85;;;8.57;;
2750;SDS011;1383;48.362;10.908;2022-11-15T01:19:45;10.63;;;8.57;;
2750;SDS011;1383;48.362;10.908;2022-11-15T01:22:12;10.05;;;8.25;;
2750;SDS011;1383;48.362;10.908;2022-11-15T01:24:39;8.80;;;7.90;;
2750;SDS011;1383;48.362;10.908;2022-11-15T01:27:06;9.90;;;8.70;;
2750;SDS011;1383;48.362;10.908;2022-11-15T01:29:33;9.32;;;8.48;;
2750;SDS011;1383;48.362;10.908;2022-11-15T01:32:00;9.07;;;8.10;;
2750;SDS011;1383;48.362;10.908;2022-11-15T01:34:27;10.50;;;9.02;;
2750;SDS011;1383;48.362;10.908;2022-11-15T01:36:54;9.60;;;8.50;;
2750;SDS011;1383;48.362;10.908;2022-11-15T01:39:20;11.13;;;8.90;;
2750;SDS011;1383;48.362;10.908;2022-11-15T01:41:47;10.45;;;8.30;;
2750;SDS011;1383;48.362;10.908;2022-11-15T01:47:04;9.15;;;8.15;;
2750;SDS011;1383;48.362;10.908;2022-11-15T01:49:39;9.55;;;8.60;;
2750;SDS011;1383;48.362;10.908;2022-11-15T01:52:16;10.30;;;8.80;;
2750;SDS011;1383;48.362;10.908;2022-11-15T01:54:45;10.55;;;8.57;;
2750;SDS011;1383;48.362;10.908;2022-11-15T01:57:14;7.63;;;6.78;;
2750;SDS011;1383;48.362;10.908;2022-11-15T01:59:42;11.43;;;8.73;;
2750;SDS011;1383;48.362;10.908;2022-11-15T02:02:11;13.73;;;8.23;;
2750;SDS011;1383;48.362;10.908;2022-11-15T02:04:42;9.85;;;8.85;;
2750;SDS011;1383;48.362;10.908;2022-11-15T02:07:11;11.25;;;7.97;;
2750;SDS011;1383;48.362;10.908;2022-11-15T02:09:41;9.45;;;8.02;;
2750;SDS011;1383;48.362;10.908;2022-11-15T02:12:08;10.80;;;8.73;;
2750;SDS011;1383;48.362;10.908;2022-11-15T02:14:38;11.30;;;8.55;;
2750;SDS011;1383;48.362;10.908;2022-11-15T02:37:02;9.30;;;7.78;;
2750;SDS011;1383;48.362;10.908;2022-11-15T02:42:14;9.40;;;8.40;;
2750;SDS011;1383;48.362;10.908;2022-11-15T02:45:11;12.20;;;8.45;;
2750;SDS011;1383;48.362;10.908;2022-11-15T02:47:44;10.57;;;9.40;;
2750;SDS011;1383;48.362;10.908;2022-11-15T02:50:16;9.07;;;8.25;;
2750;SDS011;1383;48.362;10.908;2022-11-15T02:52:45;9.43;;;8.35;;
2750;SDS011;1383;48.362;10.908;2022-11-15T02:55:26;9.40;;;8.48;;
2750;SDS011;1383;48.362;10.908;2022-11-15T02:58:01;9.35;;;7.55;;
2750;SDS011;1383;48.362;10.908;2022-11-15T03:00:50;9.45;;;7.47;;
2750;SDS011;1383;48.362;10.908;2022-11-15T03:06:52;12.50;;;8.10;;
2750;SDS011;1383;48.362;10.908;2022-11-15T03:09:44;11.60;;;8.73;;
2750;SDS011;1383;48.362;10.908;2022-11-15T03:12:41;10.25;;;8.75;;
2750;SDS011;1383;48.362;10.908;2022-11-15T03:15:28;10.18;;;8.68;;
2750;SDS011;1383;48.362;10.908;2022-11-15T03:18:05;9.13;;;7.93;;
2750;SDS011;1383;48.362;10.908;2022-11-15T03:20:38;11.18;;;7.43;;
2750;SDS011;1383;48.362;10.908;2022-11-15T03:23:07;9.30;;;7.97;;
2750;SDS011;1383;48.362;10.908;2022-11-15T03:25:37;8.52;;;7.72;;
2750;SDS011;1383;48.362;10.908;2022-11-15T03:28:09;9.75;;;8.20;;
2750;SDS011;1383;48.362;10.908;2022-11-15T03:30:38;9.68;;;8.68;;
2750;SDS011;1383;48.362;10.908;2022-11-15T03:33:06;10.15;;;8.00;;
2750;SDS011;1383;48.362;10.908;2022-11-15T03:35:38;9.73;;;7.72;;
2750;SDS011;1383;48.362;10.908;2022-11-15T03:38:14;8.45;;;7.47;;
2750;SDS011;1383;48.362;10.908;2022-11-15T03:40:59;9.23;;;7.00;;
2750;SDS011;1383;48.362;10.908;2022-11-15T03:46:10;9.40;;;8.35;;
2750;SDS011;1383;48.362;10.908;2022-11-15T03:48:46;8.75;;;7.63;;
2750;SDS011;1383;48.362;10.908;2022-11-15T03:51:16;9.18;;;7.93;;
2750;SDS011;1383;48.362;10.908;2022-11-15T03:53:45;10.73;;;7.15;;
2750;SDS011;1383;48.362;10.908;2022-11-15T03:56:12;9.95;;;7.72;;
2750;SDS011;1383;48.362;10.908;2022-11-15T03:58:38;8.55;;;7.20;;
2750;SDS011;1383;48.362;10.908;2022-11-15T04:01:05;9.02;;;7.93;;
2750;SDS011;1383;48.362;10.908;2022-11-15T04:03:32;16.33;;;8.88;;
2750;SDS011;1383;48.362;10.908;2022-11-15T04:05:59;8.52;;;7.60;;
2750;SDS011;1383;48.362;10.908;2022-11-15T04:08:26;10.00;;;8.23;;
2750;SDS011;1383;48.362;10.908;2022-11-15T04:10:53;11.73;;;7.85;;
2750;SDS011;1383;48.362;10.908;2022-11-15T04:13:20;9.32;;;8.40;;
2750;SDS011;1383;48.362;10.908;2022-11-15T04:15:47;10.48;;;7.60;;
2750;SDS011;1383;48.362;10.908;2022-11-15T04:18:14;9.38;;;7.80;;
2750;SDS011;1383;48.362;10.908;2022-11-15T04:20:41;9.02;;;7.80;;
2750;SDS011;1383;48.362;10.908;2022-11-15T04:23:26;9.05;;;7.20;;
2750;SDS011;1383;48.362;10.908;2022-11-15T04:26:15;8.85;;;7.50;;
2750;SDS011;1383;48.362;10.908;2022-11-15T04:28:44;9.10;;;8.10;;
2750;SDS011;1383;48.362;10.908;2022-11-15T04:31:29;12.85;;;8.63;;
2750;SDS011;1383;48.362;10.908;2022-11-15T04:33:56;11.23;;;8.10;;
2750;SDS011;1383;48.362;10.908;2022-11-15T04:36:23;11.27;;;9.15;;
2750;SDS011;1383;48.362;10.908;2022-11-15T04:39:08;10.55;;;7.38;;
2750;SDS011;1383;48.362;10.908;2022-11-15T04:41:35;10.13;;;7.30;;
2750;SDS011;1383;48.362;10.908;2022-11-15T04:44:02;8.80;;;7.90;;
2750;SDS011;1383;48.362;10.908;2022-11-15T04:46:29;8.55;;;6.65;;
2750;SDS011;1383;48.362;10.908;2022-11-15T04:48:55;7.90;;;6.78;;
2750;SDS011;1383;48.362;10.908;2022-11-15T04:51:24;8.27;;;7.57;;
2750;SDS011;1383;48.362;10.908;2022-11-15T04:53:51;8.63;;;7.72;;
2750;SDS011;1383;48.362;10.908;2022-11-15T04:56:19;12.60;;;7.93;;
2750;SDS011;1383;48.362;10.908;2022-11-15T04:58:48;9.43;;;7.30;;
2750;SDS011;1383;48.362;10.908;2022-11-15T05:01:15;8.90;;;8.10;;
2750;SDS011;1383;48.362;10.908;2022-11-15T05:03:43;10.27;;;7.53;;
2750;SDS011;1383;48.362;10.908;2022-11-15T05:06:29;8.80;;;7.68;;
2750;SDS011;1383;48.362;10.908;2022-11-15T05:08:56;8.48;;;7.57;;
2750;SDS011;1383;48.362;10.908;2022-11-15T05:11:23;9.25;;;7.00;;
2750;SDS011;1383;48.362;10.908;2022-11-15T05:13:49;9.68;;;8.80;;
2750;SDS011;1383;48.362;10.908;2022-11-15T05:16:16;10.32;;;8.00;;
2750;SDS011;1383;48.362;10.908;2022-11-15T05:18:43;9.90;;;7.65;;
2750;SDS011;1383;48.362;10.908;2022-11-15T05:21:11;8.32;;;7.45;;
2750;SDS011;1383;48.362;10.908;2022-11-15T05:23:40;9.02;;;7.35;;
2750;SDS011;1383;48.362;10.908;2022-11-15T05:26:07;8.98;;;7.53;;
2750;SDS011;1383;48.362;10.908;2022-11-15T05:28:35;15.48;;;7.80;;
2750;SDS011;1383;48.362;10.908;2022-11-15T05:31:03;9.18;;;7.93;;
2750;SDS011;1383;48.362;10.908;2022-11-15T05:33:31;8.68;;;7.50;;
2750;SDS011;1383;48.362;10.908;2022-11-15T05:36:00;8.43;;;7.55;;
2750;SDS011;1383;48.362;10.908;2022-11-15T05:38:41;8.80;;;7.40;;
2750;SDS011;1383;48.362;10.908;2022-11-15T05:41:08;8.73;;;7.38;;
2750;SDS011;1383;48.362;10.908;2022-11-15T05:43:36;8.98;;;8.07;;
2750;SDS011;1383;48.362;10.908;2022-11-15T05:46:06;13.38;;;8.55;;
2750;SDS011;1383;48.362;10.908;2022-11-15T05:48:34;10.85;;;8.52;;
2750;SDS011;1383;48.362;10.908;2022-11-15T05:51:02;9.50;;;8.02;;
2750;SDS011;1383;48.362;10.908;2022-11-15T05:53:33;14.60;;;8.35;;
2750;SDS011;1383;48.362;10.908;2022-11-15T05:56:02;9.40;;;8.25;;
2750;SDS011;1383;48.362;10.908;2022-11-15T05:58:31;10.07;;;7.80;;
2750;SDS011;1383;48.362;10.908;2022-11-15T06:00:58;13.68;;;8.27;;
2750;SDS011;1383;48.362;10.908;2022-11-15T06:03:26;10.23;;;8.70;;
2750;SDS011;1383;48.362;10.908;2022-11-15T06:05:53;10.55;;;8.55;;
2750;SDS011;1383;48.362;10.908;2022-11-15T06:08:20;10.23;;;7.65;;
2750;SDS011;1383;48.362;10.908;2022-11-15T06:10:47;8.93;;;7.50;;
2750;SDS011;1383;48.362;10.908;2022-11-15T06:13:13;10.45;;;8.73;;
2750;SDS011;1383;48.362;10.908;2022-11-15T06:15:40;11.98;;;9.38;;
2750;SDS011;1383;48.362;10.908;2022-11-15T06:18:07;13.25;;;9.25;;
2750;SDS011;1383;48.362;10.908;2022-11-15T06:20:34;11.68;;;8.73;;
2750;SDS011;1383;48.362;10.908;2022-11-15T06:23:01;9.60;;;8.80;;
2750;SDS011;1383;48.362;10.908;2022-11-15T06:25:30;10.27;;;8.60;;
2750;SDS011;1383;48.362;10.908;2022-11-15T06:27:57;10.43;;;8.60;;
2750;SDS011;1383;48.362;10.908;2022-11-15T06:30:25;10.95;;;8.00;;
2750;SDS011;1383;48.362;10.908;2022-11-15T06:32:59;10.60;;;9.13;;
2750;SDS011;1383;48.362;10.908;2022-11-15T06:35:28;11.95;;;9.85;;
2750;SDS011;1383;48.362;10.908;2022-11-15T06:37:55;12.10;;;10.30;;
2750;SDS011;1383;48.362;10.908;2022-11-15T06:40:22;12.27;;;8.98;;
2750;SDS011;1383;48.362;10.908;2022-11-15T06:42:49;10.25;;;8.88;;
2750;SDS011;1383;48.362;10.908;2022-11-15T06:45:16;9.18;;;7.53;;
2750;SDS011;1383;48.362;10.908;2022-11-15T06:47:45;14.50;;;8.40;;
2750;SDS011;1383;48.362;10.908;2022-11-15T06:50:13;11.18;;;10.10;;
2750;SDS011;1383;48.362;10.908;2022-11-15T06:52:39;9.60;;;8.60;;
2750;SDS011;1383;48.362;10.908;2022-11-15T06:55:06;10.40;;;8.02;;
2750;SDS011;1383;48.362;10.908;2022-11-15T06:57:34;13.40;;;10.32;;
2750;SDS011;1383;48.362;10.908;2022-11-15T07:00:04;15.60;;;8.50;;
2750;SDS011;1383;48.362;10.908;2022-11-15T07:02:32;9.68;;;8.65;;
2750;SDS011;1383;48.362;10.908;2022-11-15T07:04:59;9.73;;;8.43;;
2750;SDS011;1383;48.362;10.908;2022-11-15T07:07:25;18.83;;;9.55;;
2750;SDS011;1383;48.362;10.908;2022-11-15T07:09:52;10.75;;;9.32;;
2750;SDS011;1383;48.362;10.908;2022-11-15T07:12:19;12.30;;;9.15;;
2750;SDS011;1383;48.362;10.908;2022-11-15T07:14:46;11.15;;;9.40;;
2750;SDS011;1383;48.362;10.908;2022-11-15T07:17:13;9.60;;;8.60;;
2750;SDS011;1383;48.362;10.908;2022-11-15T07:19:40;12.52;;;9.07;;
2750;SDS011;1383;48.362;10.908;2022-11-15T07:22:06;11.95;;;9.35;;
2750;SDS011;1383;48.362;10.908;2022-11-15T07:24:33;8.27;;;7.40;;
2750;SDS011;1383;48.362;10.908;2022-11-15T07:27:00;10.88;;;9.77;;
2750;SDS011;1383;48.362;10.908;2022-11-15T07:29:27;11.93;;;9.13;;
2750;SDS011;1383;48.362;10.908;2022-11-15T07:31:54;10.50;;;8.63;;
2750;SDS011;1383;48.362;10.908;2022-11-15T07:34:21;10.93;;;8.48;;
2750;SDS011;1383;48.362;10.908;2022-11-15T07:36:48;9.13;;;8.30;;
2750;SDS011;1383;48.362;10.908;2022-11-15T07:39:15;9.02;;;8.00;;
2750;SDS011;1383;48.362;10.908;2022-11-15T07:41:41;7.82;;;7.13;;
2750;SDS011;1383;48.362;10.908;2022-11-15T07:44:09;9.55;;;7.25;;
2750;SDS011;1383;48.362;10.908;2022-11-15T07:46:36;8.25;;;7.43;;
2750;SDS011;1383;48.362;10.908;2022-11-15T07:49:03;11.97;;;10.80;;
2750;SDS011;1383;48.362;10.908;2022-11-15T07:51:30;9.80;;;7.70;;
2750;SDS011;1383;48.362;10.908;2022-11-15T07:53:57;9.00;;;7.40;;
2750;SDS011;1383;48.362;10.908;2022-11-15T07:56:24;8.23;;;7.40;;
2750;SDS011;1383;48.362;10.908;2022-11-15T07:58:50;9.63;;;8.63;;
2750;SDS011;1383;48.362;10.908;2022-11-15T08:01:17;10.07;;;7.97;;
2750;SDS011;1383;48.362;10.908;2022-11-15T08:03:44;8.68;;;7.88;;
2750;SDS011;1383;48.362;10.908;2022-11-15T08:06:11;9.98;;;8.05;;
2750;SDS011;1383;48.362;10.908;2022-11-15T08:08:38;10.53;;;7.70;;
2750;SDS011;1383;48.362;10.908;2022-11-15T08:11:04;33.10;;;25.10;;
2750;SDS011;1383;48.362;10.908;2022-11-15T08:13:31;43.70;;;32.33;;
2750;SDS011;1383;48.362;10.908;2022-11-15T08:15:59;11.90;;;9.40;;
2750;SDS011;1383;48.362;10.908;2022-11-15T08:18:27;9.88;;;8.35;;
2750;SDS011;1383;48.362;10.908;2022-11-15T08:20:57;9.00;;;7.87;;
2750;SDS011;1383;48.362;10.908;2022-11-15T08:23:25;7.20;;;6.47;;
2750;SDS011;1383;48.362;10.908;2022-11-15T08:25:52;8.38;;;7.57;;
2750;SDS011;1383;48.362;10.908;2022-11-15T08:28:24;9.57;;;7.18;;
2750;SDS011;1383;48.362;10.908;2022-11-15T08:30:51;9.15;;;7.32;;
2750;SDS011;1383;48.362;10.908;2022-11-15T08:33:18;7.73;;;7.03;;
2750;SDS011;1383;48.362;10.908;2022-11-15T08:35:45;8.43;;;7.63;;
2750;SDS011;1383;48.362;10.908;2022-11-15T08:38:12;7.10;;;6.40;;
2750;SDS011;1383;48.362;10.908;2022-11-15T08:40:39;8.00;;;7.20;;
2750;SDS011;1383;48.362;10.908;2022-11-15T08:43:06;12.82;;;6.85;;
2750;SDS011;1383;48.362;10.908;2022-11-15T08:45:33;11.25;;;5.80;;
2750;SDS011;1383;48.362;10.908;2022-11-15T08:48:02;6.57;;;5.97;;
2750;SDS011;1383;48.362;10.908;2022-11-15T08:50:29;7.97;;;6.53;;
2750;SDS011;1383;48.362;10.908;2022-11-15T08:52:56;7.03;;;6.43;;
2750;SDS011;1383;48.362;10.908;2022-11-15T08:55:23;7.38;;;6.68;;
2750;SDS011;1383;48.362;10.908;2022-11-15T08:57:50;8.00;;;5.97;;
2750;SDS011;1383;48.362;10.908;2022-11-15T09:00:17;8.98;;;7.35;;
2750;SDS011;1383;48.362;10.908;2022-11-15T09:02:46;6.70;;;6.10;;
2750;SDS011;1383;48.362;10.908;2022-11-15T09:05:13;7.70;;;6.82;;
2750;SDS011;1383;48.362;10.908;2022-11-15T09:07:41;6.43;;;5.68;;
2750;SDS011;1383;48.362;10.908;2022-11-15T09:10:08;6.20;;;5.60;;
2750;SDS011;1383;48.362;10.908;2022-11-15T09:12:35;6.60;;;5.72;;
2750;SDS011;1383;48.362;10.908;2022-11-15T09:15:02;5.72;;;5.13;;
2750;SDS011;1383;48.362;10.908;2022-11-15T09:17:30;7.85;;;5.20;;
2750;SDS011;1383;48.362;10.908;2022-11-15T09:19:57;6.63;;;5.50;;
2750;SDS011;1383;48.362;10.908;2022-11-15T09:22:23;5.67;;;5.17;;
2750;SDS011;1383;48.362;10.908;2022-11-15T09:24:50;6.33;;;5.70;;
2750;SDS011;1383;48.362;10.908;2022-11-15T09:27:17;7.60;;;5.23;;
2750;SDS011;1383;48.362;10.908;2022-11-15T09:29:43;5.97;;;5.40;;
2750;SDS011;1383;48.362;10.908;2022-11-15T09:32:10;5.50;;;4.87;;
2750;SDS011;1383;48.362;10.908;2022-11-15T09:34:37;6.10;;;5.60;;
2750;SDS011;1383;48.362;10.908;2022-11-15T09:37:04;4.93;;;4.53;;
2750;SDS011;1383;48.362;10.908;2022-11-15T09:39:30;5.93;;;4.27;;
2750;SDS011;1383;48.362;10.908;2022-11-15T09:42:04;5.40;;;5.00;;
2750;SDS011;1383;48.362;10.908;2022-11-15T09:44:47;5.13;;;4.73;;
2750;SDS011;1383;48.362;10.908;2022-11-15T09:49:58;5.10;;;4.60;;
2750;SDS011;1383;48.362;10.908;2022-11-15T09:52:27;6.80;;;5.70;;
2750;SDS011;1383;48.362;10.908;2022-11-15T09:54:54;5.30;;;4.80;;
2750;SDS011;1383;48.362;10.908;2022-11-15T09:57:30;4.40;;;4.00;;
2750;SDS011;1383;48.362;10.908;2022-11-15T10:03:12;6.13;;;4.37;;
2750;SDS011;1383;48.362;10.908;2022-11-15T10:05:43;4.97;;;4.30;;
2750;SDS011;1383;48.362;10.908;2022-11-15T10:10:50;5.17;;;4.77;;
2750;SDS011;1383;48.362;10.908;2022-11-15T10:13:49;4.90;;;4.50;;
2750;SDS011;1383;48.362;10.908;2022-11-15T10:24:42;6.67;;;3.90;;
2750;SDS011;1383;48.362;10.908;2022-11-15T10:27:15;4.80;;;4.40;;
2750;SDS011;1383;48.362;10.908;2022-11-15T10:29:47;5.30;;;4.80;;
2750;SDS011;1383;48.362;10.908;2022-11-15T10:32:16;5.07;;;4.57;;
2750;SDS011;1383;48.362;10.908;2022-11-15T10:34:44;8.20;;;4.90;;
2750;SDS011;1383;48.362;10.908;2022-11-15T10:37:11;6.43;;;4.70;;
2750;SDS011;1383;48.362;10.908;2022-11-15T10:39:38;5.33;;;4.83;;
2750;SDS011;1383;48.362;10.908;2022-11-15T10:42:15;5.23;;;4.73;;
2750;SDS011;1383;48.362;10.908;2022-11-15T10:44:43;5.00;;;4.60;;
2750;SDS011;1383;48.362;10.908;2022-11-15T10:47:24;7.30;;;5.13;;
2750;SDS011;1383;48.362;10.908;2022-11-15T10:50:04;5.63;;;4.97;;
2750;SDS011;1383;48.362;10.908;2022-11-15T10:52:50;6.93;;;4.90;;
2750;SDS011;1383;48.362;10.908;2022-11-15T10:57:49;5.37;;;4.87;;
2750;SDS011;1383;48.362;10.908;2022-11-15T11:00:36;5.57;;;4.10;;
2750;SDS011;1383;48.362;10.908;2022-11-15T11:03:06;4.80;;;4.40;;
2750;SDS011;1383;48.362;10.908;2022-11-15T11:11:25;6.03;;;4.13;;
2750;SDS011;1383;48.362;10.908;2022-11-15T11:14:11;5.30;;;4.47;;
2750;SDS011;1383;48.362;10.908;2022-11-15T11:16:59;4.73;;;3.80;;
2750;SDS011;1383;48.362;10.908;2022-11-15T11:22:57;5.10;;;4.70;;
2750;SDS011;1383;48.362;10.908;2022-11-15T11:48:13;4.97;;;4.20;;
2750;SDS011;1383;48.362;10.908;2022-11-15T11:50:47;5.67;;;5.17;;
2750;SDS011;1383;48.362;10.908;2022-11-15T11:53:20;3.93;;;3.63;;
2750;SDS011;1383;48.362;10.908;2022-11-15T11:55:54;4.33;;;3.93;;
2750;SDS011;1383;48.362;10.908;2022-11-15T11:58:36;5.00;;;4.20;;
2750;SDS011;1383;48.362;10.908;2022-11-15T12:03:39;4.60;;;4.20;;
2750;SDS011;1383;48.362;10.908;2022-11-15T12:08:51;4.70;;;3.97;;
2750;SDS011;1383;48.362;10.908;2022-11-15T12:11:38;4.20;;;3.80;;
2750;SDS011;1383;48.362;10.908;2022-11-15T12:17:17;4.27;;;3.63;;
2750;SDS011;1383;48.362;10.908;2022-11-15T12:19:47;3.30;;;3.00;;
2750;SDS011;1383;48.362;10.908;2022-11-15T12:24:54;3.77;;;3.47;;
2750;SDS011;1383;48.362;10.908;2022-11-15T12:27:37;6.03;;;4.30;;
2750;SDS011;1383;48.362;10.908;2022-11-15T12:32:40;5.30;;;3.90;;
2750;SDS011;1383;48.362;10.908;2022-11-15T12:36:02;3.93;;;3.63;;
2750;SDS011;1383;48.362;10.908;2022-11-15T12:38:09;4.77;;;3.90;;
2750;SDS011;1383;48.362;10.908;2022-11-15T12:40:38;7.47;;;3.93;;
2750;SDS011;1383;48.362;10.908;2022-11-15T12:43:37;7.37;;;3.70;;
2750;SDS011;1383;48.362;10.908;2022-11-15T12:46:09;5.10;;;4.70;;
2750;SDS011;1383;48.362;10.908;2022-11-15T12:51:05;5.23;;;4.03;;
2750;SDS011;1383;48.362;10.908;2022-11-15T12:53:33;6.07;;;5.40;;
2750;SDS011;1383;48.362;10.908;2022-11-15T13:06:47;5.57;;;4.90;;
2750;SDS011;1383;48.362;10.908;2022-11-15T13:12:06;5.50;;;4.03;;
2750;SDS011;1383;48.362;10.908;2022-11-15T13:17:38;5.20;;;4.80;;
2750;SDS011;1383;48.362;10.908;2022-11-15T13:20:01;5.03;;;4.50;;
2750;SDS011;1383;48.362;10.908;2022-11-15T13:22:38;6.20;;;5.00;;
2750;SDS011;1383;48.362;10.908;2022-11-15T13:27:49;5.47;;;4.77;;
2750;SDS011;1383;48.362;10.908;2022-11-15T13:30:21;5.67;;;5.07;;
2750;SDS011;1383;48.362;10.908;2022-11-15T13:32:49;5.73;;;5.33;;
2750;SDS011;1383;48.362;10.908;2022-11-15T13:35:21;7.90;;;5.33;;
2750;SDS011;1383;48.362;10.908;2022-11-15T13:37:54;5.80;;;5.30;;
2750;SDS011;1383;48.362;10.908;2022-11-15T13:40:29;9.73;;;4.67;;
2750;SDS011;1383;48.362;10.908;2022-11-15T13:43:15;5.93;;;5.33;;
2750;SDS011;1383;48.362;10.908;2022-11-15T13:46:15;8.60;;;5.60;;
2750;SDS011;1383;48.362;10.908;2022-11-15T13:48:43;7.80;;;5.17;;
2750;SDS011;1383;48.362;10.908;2022-11-15T13:51:30;7.00;;;6.30;;
2750;SDS011;1383;48.362;10.908;2022-11-15T13:54:10;9.83;;;8.83;;
2750;SDS011;1383;48.362;10.908;2022-11-15T13:56:56;8.77;;;6.00;;
2750;SDS011;1383;48.362;10.908;2022-11-15T13:59:25;8.20;;;6.10;;
2750;SDS011;1383;48.362;10.908;2022-11-15T14:02:17;7.97;;;7.00;;
2750;SDS011;1383;48.362;10.908;2022-11-15T14:04:53;8.27;;;7.43;;
2750;SDS011;1383;48.362;10.908;2022-11-15T14:07:26;6.00;;;5.50;;
2750;SDS011;1383;48.362;10.908;2022-11-15T14:09:55;6.20;;;5.60;;
2750;SDS011;1383;48.362;10.908;2022-11-15T14:12:34;5.97;;;5.37;;
2750;SDS011;1383;48.362;10.908;2022-11-15T14:15:44;6.90;;;5.67;;
2750;SDS011;1383;48.362;10.908;2022-11-15T14:17:56;8.53;;;7.70;;
2750;SDS011;1383;48.362;10.908;2022-11-15T14:22:57;7.60;;;5.97;;
2750;SDS011;1383;48.362;10.908;2022-11-15T14:25:29;6.97;;;5.90;;
2750;SDS011;1383;48.362;10.908;2022-11-15T14:30:35;6.67;;;5.97;;
2750;SDS011;1383;48.362;10.908;2022-11-15T14:33:14;8.67;;;5.50;;
2750;SDS011;1383;48.362;10.908;2022-11-15T14:35:43;6.40;;;5.80;;
2750;SDS011;1383;48.362;10.908;2022-11-15T14:38:10;7.97;;;7.10;;
2750;SDS011;1383;48.362;10.908;2022-11-15T14:40:37;4.97;;;4.50;;
2750;SDS011;1383;48.362;10.908;2022-11-15T14:43:04;6.73;;;6.10;;
2750;SDS011;1383;48.362;10.908;2022-11-15T14:45:31;7.77;;;5.20;;
2750;SDS011;1383;48.362;10.908;2022-11-15T14:47:57;6.43;;;5.23;;
2750;SDS011;1383;48.362;10.908;2022-11-15T14:50:24;9.73;;;7.00;;
2750;SDS011;1383;48.362;10.908;2022-11-15T14:52:52;7.40;;;6.00;;
2750;SDS011;1383;48.362;10.908;2022-11-15T14:57:47;10.90;;;8.63;;
2750;SDS011;1383;48.362;10.908;2022-11-15T15:00:14;9.97;;;6.27;;
2750;SDS011;1383;48.362;10.908;2022-11-15T15:02:43;9.53;;;6.27;;
2750;SDS011;1383;48.362;10.908;2022-11-15T15:05:18;9.00;;;6.10;;
2750;SDS011;1383;48.362;10.908;2022-11-15T15:07:47;7.23;;;5.30;;
2750;SDS011;1383;48.362;10.908;2022-11-15T15:10:14;6.90;;;5.37;;
2750;SDS011;1383;48.362;10.908;2022-11-15T15:13:03;8.33;;;5.30;;
2750;SDS011;1383;48.362;10.908;2022-11-15T15:15:34;8.40;;;4.93;;
2750;SDS011;1383;48.362;10.908;2022-11-15T15:18:03;7.90;;;5.03;;
2750;SDS011;1383;48.362;10.908;2022-11-15T15:20:31;5.03;;;4.53;;
2750;SDS011;1383;48.362;10.908;2022-11-15T15:22:58;9.33;;;5.40;;
2750;SDS011;1383;48.362;10.908;2022-11-15T15:25:32;7.50;;;4.17;;
2750;SDS011;1383;48.362;10.908;2022-11-15T15:28:01;5.50;;;5.00;;
2750;SDS011;1383;48.362;10.908;2022-11-15T15:30:29;5.30;;;4.80;;
2750;SDS011;1383;48.362;10.908;2022-11-15T15:32:56;6.77;;;5.10;;
2750;SDS011;1383;48.362;10.908;2022-11-15T15:35:23;6.53;;;5.83;;
2750;SDS011;1383;48.362;10.908;2022-11-15T15:37:55;6.60;;;6.00;;
2750;SDS011;1383;48.362;10.908;2022-11-15T15:40:22;7.43;;;5.60;;
2750;SDS011;1383;48.362;10.908;2022-11-15T15:42:50;6.47;;;4.97;;
2750;SDS011;1383;48.362;10.908;2022-11-15T15:45:17;6.80;;;5.17;;
2750;SDS011;1383;48.362;10.908;2022-11-15T15:47:45;8.20;;;6.20;;
2750;SDS011;1383;48.362;10.908;2022-11-15T15:52:57;7.27;;;6.40;;
2750;SDS011;1383;48.362;10.908;2022-11-15T15:55:25;8.00;;;6.53;;
2750;SDS011;1383;48.362;10.908;2022-11-15T15:57:52;7.97;;;7.00;;
2750;SDS011;1383;48.362;10.908;2022-11-15T16:00:20;7.10;;;6.17;;
2750;SDS011;1383;48.362;10.908;2022-11-15T16:02:49;11.93;;;7.70;;
2750;SDS011;1383;48.362;10.908;2022-11-15T16:05:16;10.50;;;6.70;;
2750;SDS011;1383;48.362;10.908;2022-11-15T16:07:43;9.20;;;7.70;;
2750;SDS011;1383;48.362;10.908;2022-11-15T16:10:19;7.60;;;6.80;;
2750;SDS011;1383;48.362;10.908;2022-11-15T16:12:48;9.40;;;6.57;;
2750;SDS011;1383;48.362;10.908;2022-11-15T16:15:15;11.20;;;7.70;;
2750;SDS011;1383;48.362;10.908;2022-11-15T16:17:50;9.77;;;6.60;;
2750;SDS011;1383;48.362;10.908;2022-11-15T16:22:58;20.43;;;13.17;;
2750;SDS011;1383;48.362;10.908;2022-11-15T16:25:37;23.00;;;13.13;;
2750;SDS011;1383;48.362;10.908;2022-11-15T16:28:04;16.47;;;10.80;;
2750;SDS011;1383;48.362;10.908;2022-11-15T16:30:40;12.57;;;10.03;;
2750;SDS011;1383;48.362;10.908;2022-11-15T16:33:07;12.97;;;10.00;;
2750;SDS011;1383;48.362;10.908;2022-11-15T16:35:34;11.70;;;9.90;;
2750;SDS011;1383;48.362;10.908;2022-11-15T16:38:01;12.23;;;8.67;;
2750;SDS011;1383;48.362;10.908;2022-11-15T16:40:29;11.27;;;9.47;;
2750;SDS011;1383;48.362;10.908;2022-11-15T16:43:01;14.37;;;10.27;;
2750;SDS011;1383;48.362;10.908;2022-11-15T16:45:29;11.93;;;8.30;;
2750;SDS011;1383;48.362;10.908;2022-11-15T16:47:57;9.30;;;8.40;;
2750;SDS011;1383;48.362;10.908;2022-11-15T16:50:25;12.83;;;8.60;;
2750;SDS011;1383;48.362;10.908;2022-11-15T16:52:56;12.07;;;9.83;;
2750;SDS011;1383;48.362;10.908;2022-11-15T16:55:25;11.83;;;10.50;;
2750;SDS011;1383;48.362;10.908;2022-11-15T16:57:54;15.57;;;11.03;;
2750;SDS011;1383;48.362;10.908;2022-11-15T17:00:23;12.90;;;10.90;;
2750;SDS011;1383;48.362;10.908;2022-11-15T17:02:51;11.50;;;9.90;;
2750;SDS011;1383;48.362;10.908;2022-11-15T17:05:19;10.27;;;9.23;;
2750;SDS011;1383;48.362;10.908;2022-11-15T17:07:48;14.03;;;9.03;;
2750;SDS011;1383;48.362;10.908;2022-11-15T17:10:22;10.93;;;8.70;;
2750;SDS011;1383;48.362;10.908;2022-11-15T17:12:50;11.63;;;8.37;;
2750;SDS011;1383;48.362;10.908;2022-11-15T17:15:18;8.63;;;7.70;;
2750;SDS011;1383;48.362;10.908;2022-11-15T17:17:49;11.50;;;7.63;;
2750;SDS011;1383;48.362;10.908;2022-11-15T17:20:18;10.17;;;7.90;;
2750;SDS011;1383;48.362;10.908;2022-11-15T17:22:46;9.73;;;8.17;;
2750;SDS011;1383;48.362;10.908;2022-11-15T17:25:13;7.63;;;6.27;;